Airfield :
LOGIN :

Register | Disclaimer

   EN    FR    IT 

 










Legend :    VFR   Marginal VFR   IFR   Intensive IFR   Very Intensive IFR
Visi :
Ceiling :
>= 8 km
>= 3000ft
5 to 8 km
1000 to 3000 ft
1500m to 5 km
500 to 1000 ft
800 to 1500m
200 to 500 ft
< 800m
< 200 ft
Symbols :   Thunderstorms  Fog  Heavy snow  Heavy precipitations  Wind > 20 kt
SIGMETs :     Misc.  Thunderstorms  Icing  Turbulence  Mountain Waves  Volcanic Ashes







- Airport Elevation : 13 ft
- IATA code : CEQ
- Download approach charts


LFMD - Cannes Mandelieu

CURRENT METAR :
  • 211500Z AUTO VRB05KT 9999 OVC054 22/13 Q1019 TEMPO 09020G30KT

EXPIRED METARs :
  • 211430Z AUTO VRB04KT 9999 -RA OVC058 22/13 Q1019 TEMPO 09020G30KT
  • 211400Z AUTO 10006KT 040V180 9999 BKN054 OVC066 23/13 Q1019 NOSIG
  • 211330Z AUTO VRB05KT 9999 BKN052 BKN066 23/14 Q1019 BECMG 09015KT
  • 211300Z AUTO 09006KT 040V160 9999 SCT052 BKN150 23/14 Q1019 NOSIG
  • 211230Z AUTO 09005KT 360V130 9999 FEW062 SCT110 23/14 Q1020 BECMG 09015KT

TAF TAF LFMD
Valid from the 21 at 15:00 until the 22 at 15:00 UTC


211400Z 2115/2215 09020KT 9999 BKN066
TEMPO 2118/2215 4000 RA OVC050
TEMPO 2200/2215 OVC020
PROB40
TEMPO 2121/2215 3000 TSRA SCT030CB OVC050
TEMPO 2116/2201 09020G30KT
ATIS : +33 4 93 48 73 23
No reported NOTAMs for that airfield.



MET'MAP, your aeronautical weather chart ! - Copyright ORBIFLY December 2007 - Disclaimer

ORBIFLY MET'MAP TEAM :

Programming & Development : Alexandra Zaïnal
Concept & Development : Baudouin d'Aumeries
Co-Development & Prog : Marc-Olivier Méhu
Technical & hardware support : Manuel Goepfert

Contact : metmap@orbifly.com




SOURCES & CREDITS :

   NOAA